London Gatwick Airport

Airport
ICAO code: 
EGKK
IATA Code: 
LGW
Summary
ICAO Region: 
EUR
Territory: 
Location: 
Crawley, West Sussex
Serving: 
London
Elevation: 
202 ft
Coordinates: 
Aerial View: 
51° 9' 12.558" N, 0° 11' 3.804" W
Metar
Observation
EGKK 190020Z 03003KT 350V060 0300 R08R/0650N FG BKN000 00/00 Q1032
Station
London / Gatwick Airport
Date/Time
2022-01-19 00:20:00
Wind direction
30°
Wind speed
03 kts
Lowest cloud amount
broken clouds
Temperature
0°C
Dew point
0°C
Humidity
100%
QNH
1032 hPa
Weather condition
n/a

London's second largest international airport.

Climatology

Temperate Marine climate/Oceanic climate (Köppen climate classification Cfb). Moderately cool summer and comparatively warm winter with a temperature range of only 14°C. Prevailing south-westerly winds from the Atlantic Ocean.

Runways

Designator Length Width Surface Rops
08L/26R 2565 45 ASP Yes/Yes
08R/26L 3159 45 ASP Yes/Yes

SKYbrary Partners:

Safety knowledge contributed by: